sensor_id;sensor_type;location;lat;lon;timestamp;P1;durP1;ratioP1;P2;durP2;ratioP2
35917;SDS011;22011;59.912;30.300;2023-03-26T00:01:04;14.65;;;8.60;;
35917;SDS011;22011;59.912;30.300;2023-03-26T00:03:33;15.38;;;8.82;;
35917;SDS011;22011;59.912;30.300;2023-03-26T00:06:02;12.98;;;8.43;;
35917;SDS011;22011;59.912;30.300;2023-03-26T00:08:32;13.90;;;7.90;;
35917;SDS011;22011;59.912;30.300;2023-03-26T00:11:00;12.13;;;8.75;;
35917;SDS011;22011;59.912;30.300;2023-03-26T00:13:28;15.18;;;7.85;;
35917;SDS011;22011;59.912;30.300;2023-03-26T00:15:56;12.27;;;7.63;;
35917;SDS011;22011;59.912;30.300;2023-03-26T00:18:26;10.98;;;8.25;;
35917;SDS011;22011;59.912;30.300;2023-03-26T00:20:56;12.02;;;7.38;;
35917;SDS011;22011;59.912;30.300;2023-03-26T00:23:25;10.63;;;6.70;;
35917;SDS011;22011;59.912;30.300;2023-03-26T00:25:54;9.23;;;6.53;;
35917;SDS011;22011;59.912;30.300;2023-03-26T00:28:22;9.32;;;6.60;;
35917;SDS011;22011;59.912;30.300;2023-03-26T00:30:55;11.10;;;5.75;;
35917;SDS011;22011;59.912;30.300;2023-03-26T00:33:26;14.45;;;7.20;;
35917;SDS011;22011;59.912;30.300;2023-03-26T00:35:54;11.37;;;7.47;;
35917;SDS011;22011;59.912;30.300;2023-03-26T00:38:23;10.43;;;7.70;;
35917;SDS011;22011;59.912;30.300;2023-03-26T00:40:51;13.98;;;8.57;;
35917;SDS011;22011;59.912;30.300;2023-03-26T00:43:19;12.70;;;8.52;;
35917;SDS011;22011;59.912;30.300;2023-03-26T00:45:49;13.00;;;8.55;;
35917;SDS011;22011;59.912;30.300;2023-03-26T00:50:48;11.82;;;8.13;;
35917;SDS011;22011;59.912;30.300;2023-03-26T00:53:16;11.27;;;7.30;;
35917;SDS011;22011;59.912;30.300;2023-03-26T00:55:45;10.35;;;6.82;;
35917;SDS011;22011;59.912;30.300;2023-03-26T00:58:14;8.38;;;5.63;;
35917;SDS011;22011;59.912;30.300;2023-03-26T01:00:43;14.65;;;5.70;;
35917;SDS011;22011;59.912;30.300;2023-03-26T01:03:16;12.25;;;6.32;;
35917;SDS011;22011;59.912;30.300;2023-03-26T01:05:49;9.75;;;5.25;;
35917;SDS011;22011;59.912;30.300;2023-03-26T01:08:20;8.60;;;5.55;;
35917;SDS011;22011;59.912;30.300;2023-03-26T01:10:51;8.00;;;5.22;;
35917;SDS011;22011;59.912;30.300;2023-03-26T01:13:28;9.65;;;6.28;;
35917;SDS011;22011;59.912;30.300;2023-03-26T01:15:58;10.93;;;6.57;;
35917;SDS011;22011;59.912;30.300;2023-03-26T01:18:27;11.20;;;6.82;;
35917;SDS011;22011;59.912;30.300;2023-03-26T01:21:00;9.35;;;5.78;;
35917;SDS011;22011;59.912;30.300;2023-03-26T01:23:37;8.68;;;5.25;;
35917;SDS011;22011;59.912;30.300;2023-03-26T01:26:11;9.13;;;5.38;;
35917;SDS011;22011;59.912;30.300;2023-03-26T01:28:50;9.93;;;5.38;;
35917;SDS011;22011;59.912;30.300;2023-03-26T01:31:22;7.45;;;5.32;;
35917;SDS011;22011;59.912;30.300;2023-03-26T01:33:57;10.18;;;5.18;;
35917;SDS011;22011;59.912;30.300;2023-03-26T01:36:33;10.90;;;5.68;;
35917;SDS011;22011;59.912;30.300;2023-03-26T01:39:07;7.78;;;5.03;;
35917;SDS011;22011;59.912;30.300;2023-03-26T01:41:45;8.90;;;4.90;;
35917;SDS011;22011;59.912;30.300;2023-03-26T01:44:17;8.63;;;4.75;;
35917;SDS011;22011;59.912;30.300;2023-03-26T01:46:51;9.57;;;5.68;;
35917;SDS011;22011;59.912;30.300;2023-03-26T01:49:20;10.23;;;4.75;;
35917;SDS011;22011;59.912;30.300;2023-03-26T01:51:49;9.25;;;5.75;;
35917;SDS011;22011;59.912;30.300;2023-03-26T01:54:17;6.85;;;5.18;;
35917;SDS011;22011;59.912;30.300;2023-03-26T01:56:51;8.80;;;5.80;;
35917;SDS011;22011;59.912;30.300;2023-03-26T01:59:35;11.40;;;7.20;;
35917;SDS011;22011;59.912;30.300;2023-03-26T02:02:20;12.70;;;7.65;;
35917;SDS011;22011;59.912;30.300;2023-03-26T02:04:54;11.88;;;8.20;;
35917;SDS011;22011;59.912;30.300;2023-03-26T02:07:27;11.68;;;7.05;;
35917;SDS011;22011;59.912;30.300;2023-03-26T02:10:06;10.07;;;7.35;;
35917;SDS011;22011;59.912;30.300;2023-03-26T02:12:39;12.30;;;7.82;;
35917;SDS011;22011;59.912;30.300;2023-03-26T02:15:09;10.85;;;7.03;;
35917;SDS011;22011;59.912;30.300;2023-03-26T02:17:38;10.55;;;6.57;;
35917;SDS011;22011;59.912;30.300;2023-03-26T02:20:06;12.50;;;5.88;;
35917;SDS011;22011;59.912;30.300;2023-03-26T02:22:35;11.00;;;5.88;;
35917;SDS011;22011;59.912;30.300;2023-03-26T02:25:07;11.32;;;5.82;;
35917;SDS011;22011;59.912;30.300;2023-03-26T02:27:35;8.02;;;5.22;;
35917;SDS011;22011;59.912;30.300;2023-03-26T02:30:06;10.48;;;5.53;;
35917;SDS011;22011;59.912;30.300;2023-03-26T02:32:35;9.20;;;5.20;;
35917;SDS011;22011;59.912;30.300;2023-03-26T02:35:04;7.35;;;5.47;;
35917;SDS011;22011;59.912;30.300;2023-03-26T02:37:33;7.53;;;4.90;;
35917;SDS011;22011;59.912;30.300;2023-03-26T02:40:09;11.65;;;5.30;;
35917;SDS011;22011;59.912;30.300;2023-03-26T02:42:39;11.57;;;5.35;;
35917;SDS011;22011;59.912;30.300;2023-03-26T02:45:09;10.18;;;5.47;;
35917;SDS011;22011;59.912;30.300;2023-03-26T02:47:48;9.80;;;6.00;;
35917;SDS011;22011;59.912;30.300;2023-03-26T02:50:51;12.82;;;6.10;;
35917;SDS011;22011;59.912;30.300;2023-03-26T02:53:26;15.05;;;7.00;;
35917;SDS011;22011;59.912;30.300;2023-03-26T02:56:07;15.27;;;8.63;;
35917;SDS011;22011;59.912;30.300;2023-03-26T02:58:45;13.85;;;8.23;;
35917;SDS011;22011;59.912;30.300;2023-03-26T03:01:15;18.63;;;10.63;;
35917;SDS011;22011;59.912;30.300;2023-03-26T03:03:50;19.27;;;10.63;;
35917;SDS011;22011;59.912;30.300;2023-03-26T03:06:34;23.13;;;11.55;;
35917;SDS011;22011;59.912;30.300;2023-03-26T03:09:03;22.35;;;11.35;;
35917;SDS011;22011;59.912;30.300;2023-03-26T03:11:36;22.05;;;10.57;;
35917;SDS011;22011;59.912;30.300;2023-03-26T03:14:05;20.92;;;11.45;;
35917;SDS011;22011;59.912;30.300;2023-03-26T03:16:35;19.52;;;10.40;;
35917;SDS011;22011;59.912;30.300;2023-03-26T03:19:05;21.48;;;11.38;;
35917;SDS011;22011;59.912;30.300;2023-03-26T03:21:37;20.90;;;9.80;;
35917;SDS011;22011;59.912;30.300;2023-03-26T03:24:07;19.23;;;10.48;;
35917;SDS011;22011;59.912;30.300;2023-03-26T03:26:42;26.20;;;11.75;;
35917;SDS011;22011;59.912;30.300;2023-03-26T03:29:42;25.45;;;12.38;;
35917;SDS011;22011;59.912;30.300;2023-03-26T03:32:43;26.58;;;12.15;;
35917;SDS011;22011;59.912;30.300;2023-03-26T03:35:13;32.90;;;16.60;;
35917;SDS011;22011;59.912;30.300;2023-03-26T03:40:11;31.58;;;16.55;;
35917;SDS011;22011;59.912;30.300;2023-03-26T03:42:39;36.40;;;18.30;;
35917;SDS011;22011;59.912;30.300;2023-03-26T03:45:10;36.65;;;17.65;;
35917;SDS011;22011;59.912;30.300;2023-03-26T03:47:48;29.52;;;17.10;;
35917;SDS011;22011;59.912;30.300;2023-03-26T03:50:22;25.85;;;12.63;;
35917;SDS011;22011;59.912;30.300;2023-03-26T03:53:11;23.35;;;11.85;;
35917;SDS011;22011;59.912;30.300;2023-03-26T03:55:41;19.02;;;10.82;;
35917;SDS011;22011;59.912;30.300;2023-03-26T03:58:19;22.27;;;10.70;;
35917;SDS011;22011;59.912;30.300;2023-03-26T04:00:49;16.70;;;9.23;;
35917;SDS011;22011;59.912;30.300;2023-03-26T04:03:37;14.65;;;6.63;;
35917;SDS011;22011;59.912;30.300;2023-03-26T04:06:10;14.98;;;6.80;;
35917;SDS011;22011;59.912;30.300;2023-03-26T04:08:38;12.82;;;6.38;;
35917;SDS011;22011;59.912;30.300;2023-03-26T04:11:07;10.35;;;6.00;;
35917;SDS011;22011;59.912;30.300;2023-03-26T04:14:07;15.02;;;9.27;;
35917;SDS011;22011;59.912;30.300;2023-03-26T04:16:59;13.77;;;8.23;;
35917;SDS011;22011;59.912;30.300;2023-03-26T04:21:58;15.68;;;6.13;;
35917;SDS011;22011;59.912;30.300;2023-03-26T04:24:30;10.52;;;5.20;;
35917;SDS011;22011;59.912;30.300;2023-03-26T04:27:16;10.60;;;4.90;;
35917;SDS011;22011;59.912;30.300;2023-03-26T04:29:50;10.82;;;5.78;;
35917;SDS011;22011;59.912;30.300;2023-03-26T04:32:22;11.07;;;5.55;;
35917;SDS011;22011;59.912;30.300;2023-03-26T04:34:57;10.23;;;4.97;;
35917;SDS011;22011;59.912;30.300;2023-03-26T04:37:27;10.88;;;5.93;;
35917;SDS011;22011;59.912;30.300;2023-03-26T04:40:22;10.95;;;5.13;;
35917;SDS011;22011;59.912;30.300;2023-03-26T04:43:01;13.88;;;6.95;;
35917;SDS011;22011;59.912;30.300;2023-03-26T04:45:50;15.48;;;7.03;;
35917;SDS011;22011;59.912;30.300;2023-03-26T04:48:20;21.20;;;10.43;;
35917;SDS011;22011;59.912;30.300;2023-03-26T04:50:49;25.33;;;10.52;;
35917;SDS011;22011;59.912;30.300;2023-03-26T04:53:19;14.68;;;8.85;;
35917;SDS011;22011;59.912;30.300;2023-03-26T04:56:07;18.65;;;9.90;;
35917;SDS011;22011;59.912;30.300;2023-03-26T04:59:09;17.00;;;7.43;;
35917;SDS011;22011;59.912;30.300;2023-03-26T05:01:42;12.88;;;6.70;;
35917;SDS011;22011;59.912;30.300;2023-03-26T05:04:13;16.58;;;6.88;;
35917;SDS011;22011;59.912;30.300;2023-03-26T05:06:42;13.02;;;6.45;;
35917;SDS011;22011;59.912;30.300;2023-03-26T05:09:21;9.68;;;5.53;;
35917;SDS011;22011;59.912;30.300;2023-03-26T05:12:06;10.60;;;5.97;;
35917;SDS011;22011;59.912;30.300;2023-03-26T05:14:47;10.85;;;5.75;;
35917;SDS011;22011;59.912;30.300;2023-03-26T05:17:22;13.50;;;5.50;;
35917;SDS011;22011;59.912;30.300;2023-03-26T05:19:51;11.05;;;5.40;;
35917;SDS011;22011;59.912;30.300;2023-03-26T05:22:20;10.90;;;5.22;;
35917;SDS011;22011;59.912;30.300;2023-03-26T05:25:08;10.52;;;5.57;;
35917;SDS011;22011;59.912;30.300;2023-03-26T05:27:36;13.00;;;5.50;;
35917;SDS011;22011;59.912;30.300;2023-03-26T05:30:05;11.90;;;5.70;;
35917;SDS011;22011;59.912;30.300;2023-03-26T05:32:41;10.05;;;5.15;;
35917;SDS011;22011;59.912;30.300;2023-03-26T05:35:09;10.73;;;5.82;;
35917;SDS011;22011;59.912;30.300;2023-03-26T05:37:39;9.35;;;4.88;;
35917;SDS011;22011;59.912;30.300;2023-03-26T05:40:09;9.85;;;5.30;;
35917;SDS011;22011;59.912;30.300;2023-03-26T05:42:47;12.00;;;5.80;;
35917;SDS011;22011;59.912;30.300;2023-03-26T05:45:48;10.75;;;5.97;;
35917;SDS011;22011;59.912;30.300;2023-03-26T05:48:21;6.72;;;4.93;;
35917;SDS011;22011;59.912;30.300;2023-03-26T05:50:49;10.95;;;5.00;;
35917;SDS011;22011;59.912;30.300;2023-03-26T05:53:20;13.20;;;5.28;;
35917;SDS011;22011;59.912;30.300;2023-03-26T05:56:08;10.32;;;5.43;;
35917;SDS011;22011;59.912;30.300;2023-03-26T05:58:54;8.88;;;5.20;;
35917;SDS011;22011;59.912;30.300;2023-03-26T06:01:40;11.93;;;5.38;;
35917;SDS011;22011;59.912;30.300;2023-03-26T06:04:32;11.07;;;5.68;;
35917;SDS011;22011;59.912;30.300;2023-03-26T06:07:31;10.35;;;5.63;;
35917;SDS011;22011;59.912;30.300;2023-03-26T06:10:26;16.92;;;5.80;;
35917;SDS011;22011;59.912;30.300;2023-03-26T06:12:53;8.25;;;5.38;;
35917;SDS011;22011;59.912;30.300;2023-03-26T06:15:21;12.07;;;6.95;;
35917;SDS011;22011;59.912;30.300;2023-03-26T06:18:12;13.90;;;6.25;;
35917;SDS011;22011;59.912;30.300;2023-03-26T06:20:51;12.25;;;5.68;;
35917;SDS011;22011;59.912;30.300;2023-03-26T06:23:27;13.02;;;6.18;;
35917;SDS011;22011;59.912;30.300;2023-03-26T06:26:22;18.05;;;7.28;;
35917;SDS011;22011;59.912;30.300;2023-03-26T06:29:03;19.67;;;7.13;;
35917;SDS011;22011;59.912;30.300;2023-03-26T06:31:37;15.63;;;7.03;;
35917;SDS011;22011;59.912;30.300;2023-03-26T06:34:21;19.38;;;7.43;;
35917;SDS011;22011;59.912;30.300;2023-03-26T06:36:49;18.75;;;7.35;;
35917;SDS011;22011;59.912;30.300;2023-03-26T06:39:19;16.13;;;7.63;;
35917;SDS011;22011;59.912;30.300;2023-03-26T06:42:11;16.65;;;8.80;;
35917;SDS011;22011;59.912;30.300;2023-03-26T06:44:59;16.98;;;8.20;;
35917;SDS011;22011;59.912;30.300;2023-03-26T06:47:32;11.30;;;7.50;;
35917;SDS011;22011;59.912;30.300;2023-03-26T06:50:26;11.90;;;7.18;;
35917;SDS011;22011;59.912;30.300;2023-03-26T06:53:09;17.08;;;7.72;;
35917;SDS011;22011;59.912;30.300;2023-03-26T06:56:07;12.10;;;7.38;;
35917;SDS011;22011;59.912;30.300;2023-03-26T06:58:59;17.23;;;7.60;;
35917;SDS011;22011;59.912;30.300;2023-03-26T07:01:30;14.82;;;7.43;;
35917;SDS011;22011;59.912;30.300;2023-03-26T07:04:16;14.80;;;8.23;;
35917;SDS011;22011;59.912;30.300;2023-03-26T07:07:12;12.70;;;7.53;;
35917;SDS011;22011;59.912;30.300;2023-03-26T07:09:58;19.40;;;9.30;;
35917;SDS011;22011;59.912;30.300;2023-03-26T07:12:44;14.48;;;8.30;;
35917;SDS011;22011;59.912;30.300;2023-03-26T07:15:22;15.82;;;8.65;;
35917;SDS011;22011;59.912;30.300;2023-03-26T07:18:12;15.75;;;8.55;;
35917;SDS011;22011;59.912;30.300;2023-03-26T07:20:42;18.33;;;9.20;;
35917;SDS011;22011;59.912;30.300;2023-03-26T07:23:11;19.73;;;9.03;;
35917;SDS011;22011;59.912;30.300;2023-03-26T07:26:16;19.20;;;11.43;;
35917;SDS011;22011;59.912;30.300;2023-03-26T07:29:03;16.35;;;10.05;;
35917;SDS011;22011;59.912;30.300;2023-03-26T07:32:18;20.73;;;10.30;;
35917;SDS011;22011;59.912;30.300;2023-03-26T07:34:52;20.60;;;12.27;;
35917;SDS011;22011;59.912;30.300;2023-03-26T07:37:34;21.98;;;13.32;;
35917;SDS011;22011;59.912;30.300;2023-03-26T07:40:16;22.35;;;13.98;;
35917;SDS011;22011;59.912;30.300;2023-03-26T07:46:41;27.00;;;15.57;;
35917;SDS011;22011;59.912;30.300;2023-03-26T07:49:33;24.85;;;15.55;;
35917;SDS011;22011;59.912;30.300;2023-03-26T07:52:37;26.13;;;14.50;;
35917;SDS011;22011;59.912;30.300;2023-03-26T07:55:19;18.85;;;12.93;;
35917;SDS011;22011;59.912;30.300;2023-03-26T07:58:08;22.30;;;12.23;;
35917;SDS011;22011;59.912;30.300;2023-03-26T08:01:11;20.08;;;11.07;;
35917;SDS011;22011;59.912;30.300;2023-03-26T08:03:49;16.83;;;10.80;;
35917;SDS011;22011;59.912;30.300;2023-03-26T08:07:09;18.00;;;10.85;;
35917;SDS011;22011;59.912;30.300;2023-03-26T08:10:11;16.80;;;10.73;;
35917;SDS011;22011;59.912;30.300;2023-03-26T08:13:00;18.65;;;11.15;;
35917;SDS011;22011;59.912;30.300;2023-03-26T08:15:43;18.65;;;11.80;;
35917;SDS011;22011;59.912;30.300;2023-03-26T08:18:21;15.95;;;10.18;;
35917;SDS011;22011;59.912;30.300;2023-03-26T08:20:57;19.13;;;11.00;;
35917;SDS011;22011;59.912;30.300;2023-03-26T08:23:31;17.90;;;10.85;;
35917;SDS011;22011;59.912;30.300;2023-03-26T08:26:05;16.27;;;10.48;;
35917;SDS011;22011;59.912;30.300;2023-03-26T08:28:45;18.52;;;11.57;;
35917;SDS011;22011;59.912;30.300;2023-03-26T08:31:25;18.00;;;9.95;;
35917;SDS011;22011;59.912;30.300;2023-03-26T08:33:59;19.33;;;10.30;;
35917;SDS011;22011;59.912;30.300;2023-03-26T08:36:27;18.90;;;10.43;;
35917;SDS011;22011;59.912;30.300;2023-03-26T08:38:57;17.63;;;9.03;;
35917;SDS011;22011;59.912;30.300;2023-03-26T08:41:53;16.23;;;9.77;;
35917;SDS011;22011;59.912;30.300;2023-03-26T08:44:58;24.30;;;10.68;;
35917;SDS011;22011;59.912;30.300;2023-03-26T08:48:07;14.38;;;9.43;;
35917;SDS011;22011;59.912;30.300;2023-03-26T08:54:09;19.65;;;9.32;;
35917;SDS011;22011;59.912;30.300;2023-03-26T08:56:56;19.50;;;8.57;;
35917;SDS011;22011;59.912;30.300;2023-03-26T08:59:50;14.90;;;9.35;;
35917;SDS011;22011;59.912;30.300;2023-03-26T09:02:42;16.77;;;9.02;;
35917;SDS011;22011;59.912;30.300;2023-03-26T09:08:52;17.88;;;8.98;;
35917;SDS011;22011;59.912;30.300;2023-03-26T09:14:52;19.57;;;9.50;;
35917;SDS011;22011;59.912;30.300;2023-03-26T09:24:15;18.73;;;9.25;;
35917;SDS011;22011;59.912;30.300;2023-03-26T09:27:06;15.23;;;8.15;;
35917;SDS011;22011;59.912;30.300;2023-03-26T09:29:56;17.65;;;8.65;;
35917;SDS011;22011;59.912;30.300;2023-03-26T09:33:06;13.05;;;7.63;;
35917;SDS011;22011;59.912;30.300;2023-03-26T09:35:54;16.02;;;8.65;;
35917;SDS011;22011;59.912;30.300;2023-03-26T09:38:46;21.10;;;8.23;;
35917;SDS011;22011;59.912;30.300;2023-03-26T09:41:23;16.58;;;8.57;;
35917;SDS011;22011;59.912;30.300;2023-03-26T09:47:19;17.65;;;7.82;;
35917;SDS011;22011;59.912;30.300;2023-03-26T09:50:07;14.75;;;8.70;;
35917;SDS011;22011;59.912;30.300;2023-03-26T09:52:58;14.35;;;8.73;;
35917;SDS011;22011;59.912;30.300;2023-03-26T09:55:43;14.75;;;8.20;;
35917;SDS011;22011;59.912;30.300;2023-03-26T10:01:19;13.32;;;8.60;;
35917;SDS011;22011;59.912;30.300;2023-03-26T10:04:20;13.68;;;7.38;;
35917;SDS011;22011;59.912;30.300;2023-03-26T10:07:05;12.65;;;7.25;;
35917;SDS011;22011;59.912;30.300;2023-03-26T10:09:44;14.50;;;7.35;;
35917;SDS011;22011;59.912;30.300;2023-03-26T10:12:21;14.00;;;7.30;;
35917;SDS011;22011;59.912;30.300;2023-03-26T10:14:58;13.23;;;6.93;;
35917;SDS011;22011;59.912;30.300;2023-03-26T10:17:36;13.52;;;7.50;;
35917;SDS011;22011;59.912;30.300;2023-03-26T10:20:23;12.88;;;6.22;;
35917;SDS011;22011;59.912;30.300;2023-03-26T10:23:06;13.10;;;6.43;;
35917;SDS011;22011;59.912;30.300;2023-03-26T10:25:48;13.55;;;6.88;;
35917;SDS011;22011;59.912;30.300;2023-03-26T10:28:37;13.98;;;6.68;;
35917;SDS011;22011;59.912;30.300;2023-03-26T10:31:34;11.52;;;6.38;;
35917;SDS011;22011;59.912;30.300;2023-03-26T10:34:12;11.20;;;6.17;;
35917;SDS011;22011;59.912;30.300;2023-03-26T10:36:55;11.75;;;5.72;;
35917;SDS011;22011;59.912;30.300;2023-03-26T10:39:37;11.25;;;5.53;;
35917;SDS011;22011;59.912;30.300;2023-03-26T10:42:30;11.73;;;5.68;;
35917;SDS011;22011;59.912;30.300;2023-03-26T10:45:20;10.07;;;5.45;;
35917;SDS011;22011;59.912;30.300;2023-03-26T10:54:01;8.07;;;4.78;;
35917;SDS011;22011;59.912;30.300;2023-03-26T10:56:35;9.40;;;4.63;;
35917;SDS011;22011;59.912;30.300;2023-03-26T10:59:07;8.15;;;4.75;;
35917;SDS011;22011;59.912;30.300;2023-03-26T11:01:40;8.43;;;5.05;;
35917;SDS011;22011;59.912;30.300;2023-03-26T11:04:16;9.25;;;4.85;;
35917;SDS011;22011;59.912;30.300;2023-03-26T11:06:55;7.10;;;4.50;;
35917;SDS011;22011;59.912;30.300;2023-03-26T11:09:35;6.65;;;4.88;;
35917;SDS011;22011;59.912;30.300;2023-03-26T11:12:12;8.02;;;4.93;;
35917;SDS011;22011;59.912;30.300;2023-03-26T11:14:46;9.13;;;5.38;;
35917;SDS011;22011;59.912;30.300;2023-03-26T11:17:21;9.27;;;5.60;;
35917;SDS011;22011;59.912;30.300;2023-03-26T11:20:01;6.85;;;4.85;;
35917;SDS011;22011;59.912;30.300;2023-03-26T11:22:35;8.80;;;5.60;;
35917;SDS011;22011;59.912;30.300;2023-03-26T11:25:17;10.25;;;5.55;;
35917;SDS011;22011;59.912;30.300;2023-03-26T11:27:55;9.65;;;5.13;;
35917;SDS011;22011;59.912;30.300;2023-03-26T11:30:35;8.93;;;4.65;;
35917;SDS011;22011;59.912;30.300;2023-03-26T11:33:08;7.53;;;4.78;;
35917;SDS011;22011;59.912;30.300;2023-03-26T11:35:42;5.30;;;3.25;;
35917;SDS011;22011;59.912;30.300;2023-03-26T11:38:15;5.55;;;3.70;;
35917;SDS011;22011;59.912;30.300;2023-03-26T11:40:49;6.05;;;3.53;;
35917;SDS011;22011;59.912;30.300;2023-03-26T11:43:43;6.00;;;3.15;;
35917;SDS011;22011;59.912;30.300;2023-03-26T11:46:14;6.38;;;3.45;;
35917;SDS011;22011;59.912;30.300;2023-03-26T11:48:47;5.15;;;3.70;;
35917;SDS011;22011;59.912;30.300;2023-03-26T11:51:28;6.80;;;4.22;;
35917;SDS011;22011;59.912;30.300;2023-03-26T11:53:57;5.05;;;3.00;;
35917;SDS011;22011;59.912;30.300;2023-03-26T11:56:28;5.90;;;3.35;;
35917;SDS011;22011;59.912;30.300;2023-03-26T11:59:00;5.70;;;3.25;;
35917;SDS011;22011;59.912;30.300;2023-03-26T12:01:43;5.57;;;3.58;;
35917;SDS011;22011;59.912;30.300;2023-03-26T12:04:15;4.60;;;3.40;;
35917;SDS011;22011;59.912;30.300;2023-03-26T12:06:51;4.33;;;3.00;;
35917;SDS011;22011;59.912;30.300;2023-03-26T12:09:22;5.00;;;2.90;;
35917;SDS011;22011;59.912;30.300;2023-03-26T12:11:53;7.13;;;3.05;;
35917;SDS011;22011;59.912;30.300;2023-03-26T12:14:27;3.83;;;2.60;;
35917;SDS011;22011;59.912;30.300;2023-03-26T12:16:59;4.88;;;3.15;;
35917;SDS011;22011;59.912;30.300;2023-03-26T12:19:33;5.30;;;2.65;;
35917;SDS011;22011;59.912;30.300;2023-03-26T12:22:04;5.38;;;2.53;;
35917;SDS011;22011;59.912;30.300;2023-03-26T12:24:33;4.80;;;2.30;;
35917;SDS011;22011;59.912;30.300;2023-03-26T12:27:18;3.75;;;2.60;;
35917;SDS011;22011;59.912;30.300;2023-03-26T12:29:49;6.70;;;2.92;;
35917;SDS011;22011;59.912;30.300;2023-03-26T12:32:17;7.07;;;2.90;;
35917;SDS011;22011;59.912;30.300;2023-03-26T12:34:46;5.43;;;2.80;;
35917;SDS011;22011;59.912;30.300;2023-03-26T12:40:04;3.17;;;2.50;;
35917;SDS011;22011;59.912;30.300;2023-03-26T12:42:39;4.65;;;2.78;;
35917;SDS011;22011;59.912;30.300;2023-03-26T12:45:11;4.68;;;2.85;;
35917;SDS011;22011;59.912;30.300;2023-03-26T12:47:40;4.40;;;3.00;;
35917;SDS011;22011;59.912;30.300;2023-03-26T12:50:11;4.57;;;2.53;;
35917;SDS011;22011;59.912;30.300;2023-03-26T12:52:44;3.85;;;2.72;;
35917;SDS011;22011;59.912;30.300;2023-03-26T12:58:11;2.75;;;2.30;;
35917;SDS011;22011;59.912;30.300;2023-03-26T13:00:50;4.38;;;2.65;;
35917;SDS011;22011;59.912;30.300;2023-03-26T13:03:34;13.30;;;2.92;;
35917;SDS011;22011;59.912;30.300;2023-03-26T13:06:16;4.80;;;2.95;;
35917;SDS011;22011;59.912;30.300;2023-03-26T13:09:09;3.65;;;2.80;;
35917;SDS011;22011;59.912;30.300;2023-03-26T13:11:53;5.93;;;2.97;;
35917;SDS011;22011;59.912;30.300;2023-03-26T13:14:32;7.75;;;2.55;;
35917;SDS011;22011;59.912;30.300;2023-03-26T13:17:28;5.30;;;3.70;;
35917;SDS011;22011;59.912;30.300;2023-03-26T13:20:03;6.75;;;3.38;;
35917;SDS011;22011;59.912;30.300;2023-03-26T13:22:39;5.13;;;3.10;;
35917;SDS011;22011;59.912;30.300;2023-03-26T13:25:19;3.55;;;2.55;;
35917;SDS011;22011;59.912;30.300;2023-03-26T13:28:00;5.28;;;2.95;;
35917;SDS011;22011;59.912;30.300;2023-03-26T13:30:47;7.68;;;3.83;;
35917;SDS011;22011;59.912;30.300;2023-03-26T13:33:25;6.45;;;3.28;;
35917;SDS011;22011;59.912;30.300;2023-03-26T13:36:03;7.93;;;3.92;;
35917;SDS011;22011;59.912;30.300;2023-03-26T13:38:39;5.15;;;3.60;;
35917;SDS011;22011;59.912;30.300;2023-03-26T13:41:21;4.68;;;3.17;;
35917;SDS011;22011;59.912;30.300;2023-03-26T13:44:00;5.82;;;3.47;;
35917;SDS011;22011;59.912;30.300;2023-03-26T13:46:37;4.88;;;3.03;;
35917;SDS011;22011;59.912;30.300;2023-03-26T13:49:09;5.97;;;3.28;;
35917;SDS011;22011;59.912;30.300;2023-03-26T13:51:40;3.22;;;2.42;;
35917;SDS011;22011;59.912;30.300;2023-03-26T13:54:14;5.05;;;2.97;;
35917;SDS011;22011;59.912;30.300;2023-03-26T13:56:48;4.72;;;3.28;;
35917;SDS011;22011;59.912;30.300;2023-03-26T13:59:21;5.45;;;3.17;;
35917;SDS011;22011;59.912;30.300;2023-03-26T14:01:56;4.28;;;3.30;;
35917;SDS011;22011;59.912;30.300;2023-03-26T14:04:28;10.82;;;3.75;;
35917;SDS011;22011;59.912;30.300;2023-03-26T14:07:00;4.90;;;3.33;;
35917;SDS011;22011;59.912;30.300;2023-03-26T14:09:33;4.57;;;3.53;;
35917;SDS011;22011;59.912;30.300;2023-03-26T14:12:15;4.43;;;2.78;;
35917;SDS011;22011;59.912;30.300;2023-03-26T14:14:51;3.38;;;2.60;;
35917;SDS011;22011;59.912;30.300;2023-03-26T14:17:25;4.20;;;2.95;;
35917;SDS011;22011;59.912;30.300;2023-03-26T14:23:19;4.93;;;2.20;;
35917;SDS011;22011;59.912;30.300;2023-03-26T14:26:05;4.45;;;2.20;;
35917;SDS011;22011;59.912;30.300;2023-03-26T14:29:02;2.67;;;2.00;;
35917;SDS011;22011;59.912;30.300;2023-03-26T14:32:11;4.32;;;2.10;;
35917;SDS011;22011;59.912;30.300;2023-03-26T14:35:00;4.38;;;2.08;;
35917;SDS011;22011;59.912;30.300;2023-03-26T14:37:57;3.05;;;2.03;;
35917;SDS011;22011;59.912;30.300;2023-03-26T14:40:51;4.20;;;2.05;;
35917;SDS011;22011;59.912;30.300;2023-03-26T14:47:04;2.63;;;1.73;;
35917;SDS011;22011;59.912;30.300;2023-03-26T14:52:49;4.13;;;2.63;;
35917;SDS011;22011;59.912;30.300;2023-03-26T14:55:29;4.65;;;2.30;;
35917;SDS011;22011;59.912;30.300;2023-03-26T14:58:46;2.28;;;1.90;;
35917;SDS011;22011;59.912;30.300;2023-03-26T15:01:49;3.53;;;1.70;;
35917;SDS011;22011;59.912;30.300;2023-03-26T15:04:51;3.28;;;1.55;;
35917;SDS011;22011;59.912;30.300;2023-03-26T15:10:43;2.85;;;1.67;;
35917;SDS011;22011;59.912;30.300;2023-03-26T15:13:39;2.30;;;1.40;;
35917;SDS011;22011;59.912;30.300;2023-03-26T15:16:30;2.45;;;1.30;;
35917;SDS011;22011;59.912;30.300;2023-03-26T15:28:26;1.83;;;1.20;;
35917;SDS011;22011;59.912;30.300;2023-03-26T15:31:32;1.67;;;1.10;;
35917;SDS011;22011;59.912;30.300;2023-03-26T15:34:30;3.97;;;1.25;;
35917;SDS011;22011;59.912;30.300;2023-03-26T15:37:23;1.30;;;1.00;;
35917;SDS011;22011;59.912;30.300;2023-03-26T15:40:23;2.42;;;1.40;;
35917;SDS011;22011;59.912;30.300;2023-03-26T15:43:00;2.45;;;1.35;;
35917;SDS011;22011;59.912;30.300;2023-03-26T15:45:33;2.05;;;1.10;;
35917;SDS011;22011;59.912;30.300;2023-03-26T15:51:06;2.88;;;1.30;;
35917;SDS011;22011;59.912;30.300;2023-03-26T15:53:48;1.58;;;1.10;;
35917;SDS011;22011;59.912;30.300;2023-03-26T15:56:24;3.08;;;0.95;;
35917;SDS011;22011;59.912;30.300;2023-03-26T15:59:20;3.42;;;0.90;;
35917;SDS011;22011;59.912;30.300;2023-03-26T16:01:59;1.70;;;0.80;;
35917;SDS011;22011;59.912;30.300;2023-03-26T16:04:42;1.42;;;0.82;;
35917;SDS011;22011;59.912;30.300;2023-03-26T16:10:17;1.92;;;0.80;;
35917;SDS011;22011;59.912;30.300;2023-03-26T16:12:54;1.38;;;0.75;;
35917;SDS011;22011;59.912;30.300;2023-03-26T16:15:38;0.80;;;0.80;;
35917;SDS011;22011;59.912;30.300;2023-03-26T16:18:17;1.52;;;0.80;;
35917;SDS011;22011;59.912;30.300;2023-03-26T16:20:54;1.73;;;1.10;;
35917;SDS011;22011;59.912;30.300;2023-03-26T16:23:30;1.15;;;1.05;;
35917;SDS011;22011;59.912;30.300;2023-03-26T16:26:14;1.15;;;1.00;;
35917;SDS011;22011;59.912;30.300;2023-03-26T16:34:54;1.52;;;0.90;;
35917;SDS011;22011;59.912;30.300;2023-03-26T16:37:34;2.28;;;0.82;;
35917;SDS011;22011;59.912;30.300;2023-03-26T16:43:14;0.68;;;0.60;;
35917;SDS011;22011;59.912;30.300;2023-03-26T16:45:57;1.88;;;1.00;;
35917;SDS011;22011;59.912;30.300;2023-03-26T16:48:34;2.50;;;1.00;;
35917;SDS011;22011;59.912;30.300;2023-03-26T16:51:08;1.02;;;0.70;;
35917;SDS011;22011;59.912;30.300;2023-03-26T16:53:44;1.42;;;0.85;;
35917;SDS011;22011;59.912;30.300;2023-03-26T16:56:23;0.93;;;0.90;;
35917;SDS011;22011;59.912;30.300;2023-03-26T16:59:00;1.00;;;0.80;;